sensor_id;sensor_type;location;lat;lon;timestamp;temperature;humidity
10030;DHT22;5055;52.054;8.524;2022-11-02T00:01:14;12.00;97.00
10030;DHT22;5055;52.054;8.524;2022-11-02T00:03:45;12.00;97.00
10030;DHT22;5055;52.054;8.524;2022-11-02T00:06:14;12.00;97.00
10030;DHT22;5055;52.054;8.524;2022-11-02T00:08:43;12.00;97.00
10030;DHT22;5055;52.054;8.524;2022-11-02T00:11:11;12.00;97.00
10030;DHT22;5055;52.054;8.524;2022-11-02T00:13:40;12.00;97.00
10030;DHT22;5055;52.054;8.524;2022-11-02T00:16:10;12.00;97.00
10030;DHT22;5055;52.054;8.524;2022-11-02T00:18:41;11.90;97.00
10030;DHT22;5055;52.054;8.524;2022-11-02T00:21:12;12.00;97.00
10030;DHT22;5055;52.054;8.524;2022-11-02T00:23:44;12.00;97.00
10030;DHT22;5055;52.054;8.524;2022-11-02T00:26:13;12.00;97.00
10030;DHT22;5055;52.054;8.524;2022-11-02T00:28:41;12.00;97.00
10030;DHT22;5055;52.054;8.524;2022-11-02T00:31:09;11.90;97.00
10030;DHT22;5055;52.054;8.524;2022-11-02T00:33:37;12.00;97.00
10030;DHT22;5055;52.054;8.524;2022-11-02T00:36:06;12.00;97.00
10030;DHT22;5055;52.054;8.524;2022-11-02T00:38:34;11.90;97.00
10030;DHT22;5055;52.054;8.524;2022-11-02T00:41:04;12.00;97.00
10030;DHT22;5055;52.054;8.524;2022-11-02T00:43:33;12.00;97.00
10030;DHT22;5055;52.054;8.524;2022-11-02T00:46:01;12.00;97.00
10030;DHT22;5055;52.054;8.524;2022-11-02T00:48:29;12.00;97.00
10030;DHT22;5055;52.054;8.524;2022-11-02T00:50:57;12.00;97.00
10030;DHT22;5055;52.054;8.524;2022-11-02T00:53:26;12.10;97.00
10030;DHT22;5055;52.054;8.524;2022-11-02T00:55:54;12.10;97.00
10030;DHT22;5055;52.054;8.524;2022-11-02T00:58:24;12.10;97.00
10030;DHT22;5055;52.054;8.524;2022-11-02T01:00:52;12.10;97.00
10030;DHT22;5055;52.054;8.524;2022-11-02T01:03:22;12.10;97.00
10030;DHT22;5055;52.054;8.524;2022-11-02T01:05:50;12.10;97.00
10030;DHT22;5055;52.054;8.524;2022-11-02T01:08:18;12.20;97.00
10030;DHT22;5055;52.054;8.524;2022-11-02T01:10:46;12.20;97.00
10030;DHT22;5055;52.054;8.524;2022-11-02T01:13:15;12.30;97.00
10030;DHT22;5055;52.054;8.524;2022-11-02T01:15:45;12.30;97.00
10030;DHT22;5055;52.054;8.524;2022-11-02T01:18:14;12.40;97.00
10030;DHT22;5055;52.054;8.524;2022-11-02T01:20:42;12.40;97.00
10030;DHT22;5055;52.054;8.524;2022-11-02T01:23:10;12.40;97.00
10030;DHT22;5055;52.054;8.524;2022-11-02T01:25:44;12.50;97.00
10030;DHT22;5055;52.054;8.524;2022-11-02T01:28:12;12.50;97.00
10030;DHT22;5055;52.054;8.524;2022-11-02T01:30:40;12.50;97.00
10030;DHT22;5055;52.054;8.524;2022-11-02T01:33:10;12.50;97.00
10030;DHT22;5055;52.054;8.524;2022-11-02T01:35:38;12.50;97.00
10030;DHT22;5055;52.054;8.524;2022-11-02T01:38:07;12.50;97.00
10030;DHT22;5055;52.054;8.524;2022-11-02T01:40:35;12.50;97.00
10030;DHT22;5055;52.054;8.524;2022-11-02T01:43:23;12.50;97.00
10030;DHT22;5055;52.054;8.524;2022-11-02T01:45:54;12.50;97.00
10030;DHT22;5055;52.054;8.524;2022-11-02T01:48:30;12.50;97.00
10030;DHT22;5055;52.054;8.524;2022-11-02T01:51:03;12.40;97.00
10030;DHT22;5055;52.054;8.524;2022-11-02T01:53:34;12.40;97.00
10030;DHT22;5055;52.054;8.524;2022-11-02T01:56:05;12.30;97.00
10030;DHT22;5055;52.054;8.524;2022-11-02T01:58:33;12.20;97.00
10030;DHT22;5055;52.054;8.524;2022-11-02T02:01:02;12.20;97.00
10030;DHT22;5055;52.054;8.524;2022-11-02T02:03:32;12.20;97.00
10030;DHT22;5055;52.054;8.524;2022-11-02T02:06:06;12.20;97.00
10030;DHT22;5055;52.054;8.524;2022-11-02T02:08:38;12.20;97.00
10030;DHT22;5055;52.054;8.524;2022-11-02T02:11:23;12.20;97.00
10030;DHT22;5055;52.054;8.524;2022-11-02T02:13:53;12.20;97.00
10030;DHT22;5055;52.054;8.524;2022-11-02T02:16:36;12.20;97.00
10030;DHT22;5055;52.054;8.524;2022-11-02T02:19:19;12.20;97.00
10030;DHT22;5055;52.054;8.524;2022-11-02T02:21:57;12.20;97.00
10030;DHT22;5055;52.054;8.524;2022-11-02T02:24:46;12.20;97.00
10030;DHT22;5055;52.054;8.524;2022-11-02T02:27:19;12.20;97.00
10030;DHT22;5055;52.054;8.524;2022-11-02T02:29:56;12.20;97.00
10030;DHT22;5055;52.054;8.524;2022-11-02T02:32:35;12.20;97.00
10030;DHT22;5055;52.054;8.524;2022-11-02T02:35:15;12.20;97.00
10030;DHT22;5055;52.054;8.524;2022-11-02T02:37:51;12.20;97.00
10030;DHT22;5055;52.054;8.524;2022-11-02T02:40:26;12.20;97.00
10030;DHT22;5055;52.054;8.524;2022-11-02T02:43:02;12.20;97.00
10030;DHT22;5055;52.054;8.524;2022-11-02T02:45:36;12.20;97.00
10030;DHT22;5055;52.054;8.524;2022-11-02T02:48:08;12.20;97.00
10030;DHT22;5055;52.054;8.524;2022-11-02T02:50:40;12.20;97.00
10030;DHT22;5055;52.054;8.524;2022-11-02T02:53:11;12.10;97.00
10030;DHT22;5055;52.054;8.524;2022-11-02T02:55:45;12.10;97.00
10030;DHT22;5055;52.054;8.524;2022-11-02T02:58:18;12.10;97.00
10030;DHT22;5055;52.054;8.524;2022-11-02T03:00:48;12.00;97.00
10030;DHT22;5055;52.054;8.524;2022-11-02T03:03:21;12.10;97.00
10030;DHT22;5055;52.054;8.524;2022-11-02T03:06:04;12.00;97.00
10030;DHT22;5055;52.054;8.524;2022-11-02T03:08:36;12.00;97.00
10030;DHT22;5055;52.054;8.524;2022-11-02T03:11:11;12.10;97.00
10030;DHT22;5055;52.054;8.524;2022-11-02T03:13:52;12.00;97.00
10030;DHT22;5055;52.054;8.524;2022-11-02T03:16:41;12.00;97.00
10030;DHT22;5055;52.054;8.524;2022-11-02T03:19:18;12.00;97.00
10030;DHT22;5055;52.054;8.524;2022-11-02T03:21:54;12.00;97.00
10030;DHT22;5055;52.054;8.524;2022-11-02T03:24:28;12.10;97.00
10030;DHT22;5055;52.054;8.524;2022-11-02T03:27:05;12.10;97.00
10030;DHT22;5055;52.054;8.524;2022-11-02T03:29:39;12.10;97.00
10030;DHT22;5055;52.054;8.524;2022-11-02T03:32:13;12.10;97.00
10030;DHT22;5055;52.054;8.524;2022-11-02T03:34:47;12.10;97.00
10030;DHT22;5055;52.054;8.524;2022-11-02T03:37:19;12.10;97.00
10030;DHT22;5055;52.054;8.524;2022-11-02T03:39:51;12.20;97.00
10030;DHT22;5055;52.054;8.524;2022-11-02T03:42:22;12.20;97.00
10030;DHT22;5055;52.054;8.524;2022-11-02T03:44:54;12.20;97.00
10030;DHT22;5055;52.054;8.524;2022-11-02T03:47:25;12.30;97.00
10030;DHT22;5055;52.054;8.524;2022-11-02T03:49:57;12.30;97.00
10030;DHT22;5055;52.054;8.524;2022-11-02T03:52:30;12.20;97.00
10030;DHT22;5055;52.054;8.524;2022-11-02T03:55:03;12.30;97.00
10030;DHT22;5055;52.054;8.524;2022-11-02T03:57:35;12.30;97.00
10030;DHT22;5055;52.054;8.524;2022-11-02T04:00:08;12.30;97.00
10030;DHT22;5055;52.054;8.524;2022-11-02T04:02:40;12.30;97.00
10030;DHT22;5055;52.054;8.524;2022-11-02T04:05:10;12.30;97.00
10030;DHT22;5055;52.054;8.524;2022-11-02T04:07:41;12.30;97.00
10030;DHT22;5055;52.054;8.524;2022-11-02T04:10:26;12.30;97.00
10030;DHT22;5055;52.054;8.524;2022-11-02T04:12:54;12.30;97.00
10030;DHT22;5055;52.054;8.524;2022-11-02T04:15:40;12.40;97.00
10030;DHT22;5055;52.054;8.524;2022-11-02T04:18:10;12.30;97.00
10030;DHT22;5055;52.054;8.524;2022-11-02T04:20:55;12.30;97.00
10030;DHT22;5055;52.054;8.524;2022-11-02T04:23:23;12.20;97.00
10030;DHT22;5055;52.054;8.524;2022-11-02T04:26:09;12.30;97.00
10030;DHT22;5055;52.054;8.524;2022-11-02T04:28:37;12.30;97.00
10030;DHT22;5055;52.054;8.524;2022-11-02T04:31:05;12.30;97.00
10030;DHT22;5055;52.054;8.524;2022-11-02T04:33:35;12.40;97.00
10030;DHT22;5055;52.054;8.524;2022-11-02T04:36:04;12.40;97.00
10030;DHT22;5055;52.054;8.524;2022-11-02T04:38:32;12.30;97.00
10030;DHT22;5055;52.054;8.524;2022-11-02T04:41:09;12.30;97.00
10030;DHT22;5055;52.054;8.524;2022-11-02T04:43:56;12.40;97.00
10030;DHT22;5055;52.054;8.524;2022-11-02T04:46:25;12.40;97.00
10030;DHT22;5055;52.054;8.524;2022-11-02T04:48:55;12.40;97.00
10030;DHT22;5055;52.054;8.524;2022-11-02T04:51:25;12.40;97.00
10030;DHT22;5055;52.054;8.524;2022-11-02T04:53:55;12.40;97.00
10030;DHT22;5055;52.054;8.524;2022-11-02T04:56:24;12.40;97.00
10030;DHT22;5055;52.054;8.524;2022-11-02T04:58:53;12.30;97.00
10030;DHT22;5055;52.054;8.524;2022-11-02T05:01:22;12.20;97.00
10030;DHT22;5055;52.054;8.524;2022-11-02T05:03:52;12.20;97.00
10030;DHT22;5055;52.054;8.524;2022-11-02T05:06:23;12.10;97.00
10030;DHT22;5055;52.054;8.524;2022-11-02T05:08:51;12.20;97.00
10030;DHT22;5055;52.054;8.524;2022-11-02T05:11:19;12.20;97.00
10030;DHT22;5055;52.054;8.524;2022-11-02T05:13:47;12.20;97.00
10030;DHT22;5055;52.054;8.524;2022-11-02T05:16:16;12.20;97.00
10030;DHT22;5055;52.054;8.524;2022-11-02T05:18:44;12.20;97.00
10030;DHT22;5055;52.054;8.524;2022-11-02T05:21:12;12.20;97.00
10030;DHT22;5055;52.054;8.524;2022-11-02T05:23:42;12.30;97.00
10030;DHT22;5055;52.054;8.524;2022-11-02T05:26:11;12.20;97.00
10030;DHT22;5055;52.054;8.524;2022-11-02T05:28:39;12.30;97.00
10030;DHT22;5055;52.054;8.524;2022-11-02T05:31:07;12.30;97.00
10030;DHT22;5055;52.054;8.524;2022-11-02T05:33:35;12.20;97.00
10030;DHT22;5055;52.054;8.524;2022-11-02T05:36:04;12.30;97.00
10030;DHT22;5055;52.054;8.524;2022-11-02T05:38:32;12.30;97.00
10030;DHT22;5055;52.054;8.524;2022-11-02T05:41:02;12.40;97.00
10030;DHT22;5055;52.054;8.524;2022-11-02T05:43:30;12.40;97.00
10030;DHT22;5055;52.054;8.524;2022-11-02T05:46:01;12.50;97.00
10030;DHT22;5055;52.054;8.524;2022-11-02T05:48:31;12.50;97.00
10030;DHT22;5055;52.054;8.524;2022-11-02T05:51:01;12.60;97.00
10030;DHT22;5055;52.054;8.524;2022-11-02T05:53:30;12.60;97.00
10030;DHT22;5055;52.054;8.524;2022-11-02T05:56:02;12.60;97.00
10030;DHT22;5055;52.054;8.524;2022-11-02T05:58:31;12.60;97.00
10030;DHT22;5055;52.054;8.524;2022-11-02T06:01:00;12.70;97.00
10030;DHT22;5055;52.054;8.524;2022-11-02T06:03:29;12.70;97.00
10030;DHT22;5055;52.054;8.524;2022-11-02T06:05:58;12.70;97.00
10030;DHT22;5055;52.054;8.524;2022-11-02T06:08:26;12.70;97.00
10030;DHT22;5055;52.054;8.524;2022-11-02T06:10:55;12.70;97.00
10030;DHT22;5055;52.054;8.524;2022-11-02T06:13:24;12.70;97.00
10030;DHT22;5055;52.054;8.524;2022-11-02T06:15:52;12.70;97.00
10030;DHT22;5055;52.054;8.524;2022-11-02T06:18:20;12.70;97.00
10030;DHT22;5055;52.054;8.524;2022-11-02T06:20:49;12.60;97.00
10030;DHT22;5055;52.054;8.524;2022-11-02T06:23:17;12.50;97.00
10030;DHT22;5055;52.054;8.524;2022-11-02T06:25:50;12.50;97.00
10030;DHT22;5055;52.054;8.524;2022-11-02T06:28:18;12.50;97.00
10030;DHT22;5055;52.054;8.524;2022-11-02T06:30:48;12.60;97.00
10030;DHT22;5055;52.054;8.524;2022-11-02T06:33:18;12.60;97.00
10030;DHT22;5055;52.054;8.524;2022-11-02T06:35:48;12.60;97.00
10030;DHT22;5055;52.054;8.524;2022-11-02T06:38:17;12.60;97.00
10030;DHT22;5055;52.054;8.524;2022-11-02T06:40:52;12.60;97.00
10030;DHT22;5055;52.054;8.524;2022-11-02T06:43:20;12.60;97.00
10030;DHT22;5055;52.054;8.524;2022-11-02T06:45:53;12.60;97.00
10030;DHT22;5055;52.054;8.524;2022-11-02T06:48:21;12.60;97.00
10030;DHT22;5055;52.054;8.524;2022-11-02T06:50:49;12.60;97.00
10030;DHT22;5055;52.054;8.524;2022-11-02T06:53:17;12.70;97.00
10030;DHT22;5055;52.054;8.524;2022-11-02T06:55:50;12.60;97.00
10030;DHT22;5055;52.054;8.524;2022-11-02T06:58:19;12.60;97.00
10030;DHT22;5055;52.054;8.524;2022-11-02T07:00:48;12.70;97.00
10030;DHT22;5055;52.054;8.524;2022-11-02T07:03:18;12.70;97.00
10030;DHT22;5055;52.054;8.524;2022-11-02T07:05:49;12.80;97.00
10030;DHT22;5055;52.054;8.524;2022-11-02T07:08:19;12.80;97.00
10030;DHT22;5055;52.054;8.524;2022-11-02T07:10:47;12.80;97.00
10030;DHT22;5055;52.054;8.524;2022-11-02T07:13:16;12.90;97.00
10030;DHT22;5055;52.054;8.524;2022-11-02T07:15:44;12.80;97.00
10030;DHT22;5055;52.054;8.524;2022-11-02T07:18:13;12.90;97.00
10030;DHT22;5055;52.054;8.524;2022-11-02T07:20:42;12.80;97.00
10030;DHT22;5055;52.054;8.524;2022-11-02T07:23:11;12.90;97.00
10030;DHT22;5055;52.054;8.524;2022-11-02T07:25:39;12.90;97.00
10030;DHT22;5055;52.054;8.524;2022-11-02T07:28:07;12.90;97.00
10030;DHT22;5055;52.054;8.524;2022-11-02T07:30:36;12.90;97.00
10030;DHT22;5055;52.054;8.524;2022-11-02T07:33:04;12.90;97.00
10030;DHT22;5055;52.054;8.524;2022-11-02T07:35:33;12.90;97.00
10030;DHT22;5055;52.054;8.524;2022-11-02T07:38:04;12.90;97.00
10030;DHT22;5055;52.054;8.524;2022-11-02T07:40:34;12.90;97.00
10030;DHT22;5055;52.054;8.524;2022-11-02T07:43:03;13.00;97.00
10030;DHT22;5055;52.054;8.524;2022-11-02T07:45:32;13.00;97.00
10030;DHT22;5055;52.054;8.524;2022-11-02T07:48:00;13.00;97.00
10030;DHT22;5055;52.054;8.524;2022-11-02T07:50:28;13.10;97.00
10030;DHT22;5055;52.054;8.524;2022-11-02T07:52:57;13.10;97.00
10030;DHT22;5055;52.054;8.524;2022-11-02T07:55:28;13.10;97.00
10030;DHT22;5055;52.054;8.524;2022-11-02T07:57:58;13.10;97.00
10030;DHT22;5055;52.054;8.524;2022-11-02T08:00:28;13.20;97.00
10030;DHT22;5055;52.054;8.524;2022-11-02T08:02:58;13.20;97.00
10030;DHT22;5055;52.054;8.524;2022-11-02T08:05:28;13.40;97.00
10030;DHT22;5055;52.054;8.524;2022-11-02T08:07:57;13.60;97.00
10030;DHT22;5055;52.054;8.524;2022-11-02T08:10:32;13.80;97.00
10030;DHT22;5055;52.054;8.524;2022-11-02T08:13:08;13.90;97.00
10030;DHT22;5055;52.054;8.524;2022-11-02T08:15:38;14.00;97.00
10030;DHT22;5055;52.054;8.524;2022-11-02T08:18:08;13.90;97.00
10030;DHT22;5055;52.054;8.524;2022-11-02T08:20:39;13.80;97.00
10030;DHT22;5055;52.054;8.524;2022-11-02T08:23:08;13.70;97.00
10030;DHT22;5055;52.054;8.524;2022-11-02T08:25:39;13.60;97.00
10030;DHT22;5055;52.054;8.524;2022-11-02T08:28:11;13.50;97.00
10030;DHT22;5055;52.054;8.524;2022-11-02T08:30:41;13.50;97.00
10030;DHT22;5055;52.054;8.524;2022-11-02T08:33:11;13.40;97.00
10030;DHT22;5055;52.054;8.524;2022-11-02T08:35:43;13.40;97.00
10030;DHT22;5055;52.054;8.524;2022-11-02T08:38:12;13.40;97.00
10030;DHT22;5055;52.054;8.524;2022-11-02T08:40:42;13.50;97.00
10030;DHT22;5055;52.054;8.524;2022-11-02T08:43:12;13.60;97.00
10030;DHT22;5055;52.054;8.524;2022-11-02T08:45:43;13.60;97.00
10030;DHT22;5055;52.054;8.524;2022-11-02T08:48:31;13.50;97.00
10030;DHT22;5055;52.054;8.524;2022-11-02T08:51:00;13.60;97.00
10030;DHT22;5055;52.054;8.524;2022-11-02T08:53:28;13.70;97.00
10030;DHT22;5055;52.054;8.524;2022-11-02T08:55:58;13.90;97.00
10030;DHT22;5055;52.054;8.524;2022-11-02T08:58:26;13.90;97.00
10030;DHT22;5055;52.054;8.524;2022-11-02T09:00:55;13.90;97.00
10030;DHT22;5055;52.054;8.524;2022-11-02T09:03:23;13.80;97.00
10030;DHT22;5055;52.054;8.524;2022-11-02T09:05:56;13.80;97.00
10030;DHT22;5055;52.054;8.524;2022-11-02T09:08:29;13.90;97.00
10030;DHT22;5055;52.054;8.524;2022-11-02T09:11:00;14.10;97.00
10030;DHT22;5055;52.054;8.524;2022-11-02T09:13:29;14.20;97.00
10030;DHT22;5055;52.054;8.524;2022-11-02T09:15:58;14.60;97.00
10030;DHT22;5055;52.054;8.524;2022-11-02T09:18:27;14.80;97.00
10030;DHT22;5055;52.054;8.524;2022-11-02T09:20:56;14.70;97.00
10030;DHT22;5055;52.054;8.524;2022-11-02T09:23:24;14.70;97.00
10030;DHT22;5055;52.054;8.524;2022-11-02T09:25:53;15.00;97.00
10030;DHT22;5055;52.054;8.524;2022-11-02T09:28:23;15.00;97.00
10030;DHT22;5055;52.054;8.524;2022-11-02T09:30:53;15.00;97.00
10030;DHT22;5055;52.054;8.524;2022-11-02T09:33:22;14.80;97.00
10030;DHT22;5055;52.054;8.524;2022-11-02T09:35:50;14.60;97.00
10030;DHT22;5055;52.054;8.524;2022-11-02T09:38:20;14.40;97.00
10030;DHT22;5055;52.054;8.524;2022-11-02T09:40:53;14.40;97.00
10030;DHT22;5055;52.054;8.524;2022-11-02T09:43:37;14.50;97.00
10030;DHT22;5055;52.054;8.524;2022-11-02T09:46:10;14.20;97.00
10030;DHT22;5055;52.054;8.524;2022-11-02T09:48:44;14.30;97.00
10030;DHT22;5055;52.054;8.524;2022-11-02T09:51:15;14.30;97.00
10030;DHT22;5055;52.054;8.524;2022-11-02T09:53:51;14.60;97.00
10030;DHT22;5055;52.054;8.524;2022-11-02T09:56:21;14.80;97.00
10030;DHT22;5055;52.054;8.524;2022-11-02T09:58:55;14.90;97.00
10030;DHT22;5055;52.054;8.524;2022-11-02T10:01:42;14.90;97.00
10030;DHT22;5055;52.054;8.524;2022-11-02T10:04:45;15.00;97.00
10030;DHT22;5055;52.054;8.524;2022-11-02T10:07:24;15.10;97.00
10030;DHT22;5055;52.054;8.524;2022-11-02T10:09:58;14.90;97.00
10030;DHT22;5055;52.054;8.524;2022-11-02T10:12:33;15.00;97.00
10030;DHT22;5055;52.054;8.524;2022-11-02T10:15:10;15.00;97.00
10030;DHT22;5055;52.054;8.524;2022-11-02T10:17:42;15.00;97.00
10030;DHT22;5055;52.054;8.524;2022-11-02T10:20:21;15.20;97.00
10030;DHT22;5055;52.054;8.524;2022-11-02T10:22:54;15.40;97.00
10030;DHT22;5055;52.054;8.524;2022-11-02T10:25:26;15.60;97.00
10030;DHT22;5055;52.054;8.524;2022-11-02T10:27:59;15.50;97.00
10030;DHT22;5055;52.054;8.524;2022-11-02T10:30:31;15.50;97.00
10030;DHT22;5055;52.054;8.524;2022-11-02T10:33:00;15.30;97.00
10030;DHT22;5055;52.054;8.524;2022-11-02T10:35:36;15.00;97.00
10030;DHT22;5055;52.054;8.524;2022-11-02T10:38:36;14.90;97.00
10030;DHT22;5055;52.054;8.524;2022-11-02T10:41:21;14.50;97.00
10030;DHT22;5055;52.054;8.524;2022-11-02T10:44:13;14.30;97.00
10030;DHT22;5055;52.054;8.524;2022-11-02T10:46:54;14.20;97.00
10030;DHT22;5055;52.054;8.524;2022-11-02T10:49:40;14.20;97.00
10030;DHT22;5055;52.054;8.524;2022-11-02T10:52:15;14.30;97.00
10030;DHT22;5055;52.054;8.524;2022-11-02T10:54:43;14.30;97.00
10030;DHT22;5055;52.054;8.524;2022-11-02T10:57:13;14.40;97.00
10030;DHT22;5055;52.054;8.524;2022-11-02T10:59:42;14.30;97.00
10030;DHT22;5055;52.054;8.524;2022-11-02T11:02:13;14.30;97.00
10030;DHT22;5055;52.054;8.524;2022-11-02T11:04:42;14.40;97.00
10030;DHT22;5055;52.054;8.524;2022-11-02T11:07:13;14.40;97.00
10030;DHT22;5055;52.054;8.524;2022-11-02T11:09:49;14.60;97.00
10030;DHT22;5055;52.054;8.524;2022-11-02T11:12:22;14.60;97.00
10030;DHT22;5055;52.054;8.524;2022-11-02T11:14:55;14.70;97.00
10030;DHT22;5055;52.054;8.524;2022-11-02T11:17:46;14.70;97.00
10030;DHT22;5055;52.054;8.524;2022-11-02T11:20:35;14.90;97.00
10030;DHT22;5055;52.054;8.524;2022-11-02T11:23:19;14.90;97.00
10030;DHT22;5055;52.054;8.524;2022-11-02T11:25:59;14.70;97.00
10030;DHT22;5055;52.054;8.524;2022-11-02T11:28:30;14.60;97.00
10030;DHT22;5055;52.054;8.524;2022-11-02T11:31:10;14.60;97.00
10030;DHT22;5055;52.054;8.524;2022-11-02T11:33:46;14.40;97.00
10030;DHT22;5055;52.054;8.524;2022-11-02T11:36:24;14.30;97.00
10030;DHT22;5055;52.054;8.524;2022-11-02T11:38:56;14.30;97.00
10030;DHT22;5055;52.054;8.524;2022-11-02T11:41:26;14.10;97.00
10030;DHT22;5055;52.054;8.524;2022-11-02T11:43:55;14.10;97.00
10030;DHT22;5055;52.054;8.524;2022-11-02T11:46:37;14.00;97.00
10030;DHT22;5055;52.054;8.524;2022-11-02T11:49:18;13.90;97.00
10030;DHT22;5055;52.054;8.524;2022-11-02T11:52:02;13.90;97.00
10030;DHT22;5055;52.054;8.524;2022-11-02T11:54:31;13.90;97.00
10030;DHT22;5055;52.054;8.524;2022-11-02T11:57:22;14.00;97.00
10030;DHT22;5055;52.054;8.524;2022-11-02T11:59:51;14.20;97.00
10030;DHT22;5055;52.054;8.524;2022-11-02T12:02:22;14.30;97.00
10030;DHT22;5055;52.054;8.524;2022-11-02T12:04:58;14.20;97.00
10030;DHT22;5055;52.054;8.524;2022-11-02T12:07:52;14.30;97.00
10030;DHT22;5055;52.054;8.524;2022-11-02T12:10:37;14.30;97.00
10030;DHT22;5055;52.054;8.524;2022-11-02T12:13:15;14.40;97.00
10030;DHT22;5055;52.054;8.524;2022-11-02T12:15:58;14.70;97.00
10030;DHT22;5055;52.054;8.524;2022-11-02T12:18:40;15.20;97.00
10030;DHT22;5055;52.054;8.524;2022-11-02T12:21:37;15.30;97.00
10030;DHT22;5055;52.054;8.524;2022-11-02T12:24:22;15.70;97.00
10030;DHT22;5055;52.054;8.524;2022-11-02T12:27:03;16.10;97.00
10030;DHT22;5055;52.054;8.524;2022-11-02T12:32:46;16.90;97.00
10030;DHT22;5055;52.054;8.524;2022-11-02T12:38:54;17.80;97.00
10030;DHT22;5055;52.054;8.524;2022-11-02T12:41:46;18.50;97.00
10030;DHT22;5055;52.054;8.524;2022-11-02T12:44:29;18.30;97.00
10030;DHT22;5055;52.054;8.524;2022-11-02T12:47:07;18.50;97.00
10030;DHT22;5055;52.054;8.524;2022-11-02T12:49:43;19.00;97.00
10030;DHT22;5055;52.054;8.524;2022-11-02T12:52:25;19.00;97.00
10030;DHT22;5055;52.054;8.524;2022-11-02T12:54:57;19.20;97.00
10030;DHT22;5055;52.054;8.524;2022-11-02T12:57:29;19.00;97.00
10030;DHT22;5055;52.054;8.524;2022-11-02T13:00:02;19.30;97.00
10030;DHT22;5055;52.054;8.524;2022-11-02T13:02:41;19.60;97.00
10030;DHT22;5055;52.054;8.524;2022-11-02T13:05:14;19.20;97.00
10030;DHT22;5055;52.054;8.524;2022-11-02T13:07:47;19.00;97.00
10030;DHT22;5055;52.054;8.524;2022-11-02T13:10:21;18.70;97.00
10030;DHT22;5055;52.054;8.524;2022-11-02T13:12:53;19.00;97.00
10030;DHT22;5055;52.054;8.524;2022-11-02T13:15:28;19.10;97.00
10030;DHT22;5055;52.054;8.524;2022-11-02T13:18:05;19.20;97.00
10030;DHT22;5055;52.054;8.524;2022-11-02T13:20:41;18.80;97.00
10030;DHT22;5055;52.054;8.524;2022-11-02T13:23:23;18.80;97.00
10030;DHT22;5055;52.054;8.524;2022-11-02T13:25:57;18.60;97.00
10030;DHT22;5055;52.054;8.524;2022-11-02T13:28:33;18.50;97.00
10030;DHT22;5055;52.054;8.524;2022-11-02T13:31:03;19.00;97.00
10030;DHT22;5055;52.054;8.524;2022-11-02T13:33:43;18.80;97.00
10030;DHT22;5055;52.054;8.524;2022-11-02T13:36:13;18.80;97.00
10030;DHT22;5055;52.054;8.524;2022-11-02T13:38:47;19.10;97.00
10030;DHT22;5055;52.054;8.524;2022-11-02T13:41:37;19.40;97.00
10030;DHT22;5055;52.054;8.524;2022-11-02T13:47:22;19.60;97.00
10030;DHT22;5055;52.054;8.524;2022-11-02T13:49:54;19.40;97.00
10030;DHT22;5055;52.054;8.524;2022-11-02T13:52:28;19.40;97.00
10030;DHT22;5055;52.054;8.524;2022-11-02T13:55:02;18.90;97.00
10030;DHT22;5055;52.054;8.524;2022-11-02T13:57:35;18.60;97.00
10030;DHT22;5055;52.054;8.524;2022-11-02T14:00:07;18.50;97.00
10030;DHT22;5055;52.054;8.524;2022-11-02T14:02:55;18.20;97.00
10030;DHT22;5055;52.054;8.524;2022-11-02T14:05:28;18.20;97.00
10030;DHT22;5055;52.054;8.524;2022-11-02T14:07:59;17.90;97.00
10030;DHT22;5055;52.054;8.524;2022-11-02T14:10:31;18.20;97.00
10030;DHT22;5055;52.054;8.524;2022-11-02T14:13:02;18.20;97.00
10030;DHT22;5055;52.054;8.524;2022-11-02T14:15:40;18.70;97.00
10030;DHT22;5055;52.054;8.524;2022-11-02T14:18:24;18.90;97.00
10030;DHT22;5055;52.054;8.524;2022-11-02T14:20:54;19.30;97.00
10030;DHT22;5055;52.054;8.524;2022-11-02T14:23:38;19.30;97.00
10030;DHT22;5055;52.054;8.524;2022-11-02T14:26:29;19.40;97.00
10030;DHT22;5055;52.054;8.524;2022-11-02T14:29:07;19.40;97.00
10030;DHT22;5055;52.054;8.524;2022-11-02T14:31:59;19.30;97.00
10030;DHT22;5055;52.054;8.524;2022-11-02T14:34:38;19.50;97.00
10030;DHT22;5055;52.054;8.524;2022-11-02T14:37:34;19.70;97.00
10030;DHT22;5055;52.054;8.524;2022-11-02T14:40:17;19.60;97.00
10030;DHT22;5055;52.054;8.524;2022-11-02T14:43:19;19.30;97.00
10030;DHT22;5055;52.054;8.524;2022-11-02T14:46:05;18.20;97.00
10030;DHT22;5055;52.054;8.524;2022-11-02T14:48:45;17.40;97.00
10030;DHT22;5055;52.054;8.524;2022-11-02T14:51:18;16.40;97.00
10030;DHT22;5055;52.054;8.524;2022-11-02T14:53:48;16.00;97.00
10030;DHT22;5055;52.054;8.524;2022-11-02T14:56:21;15.60;97.00
10030;DHT22;5055;52.054;8.524;2022-11-02T14:58:54;15.40;97.00
10030;DHT22;5055;52.054;8.524;2022-11-02T15:01:26;15.30;97.00
10030;DHT22;5055;52.054;8.524;2022-11-02T15:03:55;15.10;97.00
10030;DHT22;5055;52.054;8.524;2022-11-02T15:06:26;14.90;97.00
10030;DHT22;5055;52.054;8.524;2022-11-02T15:08:58;14.80;97.00
10030;DHT22;5055;52.054;8.524;2022-11-02T15:11:46;14.70;97.00
10030;DHT22;5055;52.054;8.524;2022-11-02T15:18:12;14.50;97.00
10030;DHT22;5055;52.054;8.524;2022-11-02T15:20:43;14.40;97.00
10030;DHT22;5055;52.054;8.524;2022-11-02T15:23:21;14.30;97.00
10030;DHT22;5055;52.054;8.524;2022-11-02T15:25:58;14.20;97.00
10030;DHT22;5055;52.054;8.524;2022-11-02T15:28:31;14.20;97.00
10030;DHT22;5055;52.054;8.524;2022-11-02T15:31:05;14.10;97.00
10030;DHT22;5055;52.054;8.524;2022-11-02T15:33:37;14.00;97.00
10030;DHT22;5055;52.054;8.524;2022-11-02T15:36:12;13.90;97.00
10030;DHT22;5055;52.054;8.524;2022-11-02T15:38:46;13.80;97.00
10030;DHT22;5055;52.054;8.524;2022-11-02T15:41:19;13.70;97.00
10030;DHT22;5055;52.054;8.524;2022-11-02T15:43:59;13.60;97.00
10030;DHT22;5055;52.054;8.524;2022-11-02T15:46:39;13.50;97.00
10030;DHT22;5055;52.054;8.524;2022-11-02T15:49:21;13.40;97.00
10030;DHT22;5055;52.054;8.524;2022-11-02T15:51:58;13.30;97.00
10030;DHT22;5055;52.054;8.524;2022-11-02T15:54:50;13.20;97.00
10030;DHT22;5055;52.054;8.524;2022-11-02T15:57:29;13.10;97.00
10030;DHT22;5055;52.054;8.524;2022-11-02T16:00:16;13.10;97.00
10030;DHT22;5055;52.054;8.524;2022-11-02T16:02:45;13.00;97.00
10030;DHT22;5055;52.054;8.524;2022-11-02T16:05:22;12.90;97.00
10030;DHT22;5055;52.054;8.524;2022-11-02T16:07:52;12.80;97.00
10030;DHT22;5055;52.054;8.524;2022-11-02T16:10:37;12.80;97.00
10030;DHT22;5055;52.054;8.524;2022-11-02T16:13:13;12.70;97.00
10030;DHT22;5055;52.054;8.524;2022-11-02T16:15:47;12.60;97.00
10030;DHT22;5055;52.054;8.524;2022-11-02T16:18:22;12.50;97.00
10030;DHT22;5055;52.054;8.524;2022-11-02T16:20:53;12.40;97.00
10030;DHT22;5055;52.054;8.524;2022-11-02T16:23:24;12.40;97.00
10030;DHT22;5055;52.054;8.524;2022-11-02T16:25:55;12.40;97.00
10030;DHT22;5055;52.054;8.524;2022-11-02T16:28:26;12.40;97.00
10030;DHT22;5055;52.054;8.524;2022-11-02T16:31:04;12.30;97.00
10030;DHT22;5055;52.054;8.524;2022-11-02T16:33:45;12.20;97.00
10030;DHT22;5055;52.054;8.524;2022-11-02T16:36:17;12.10;97.00
10030;DHT22;5055;52.054;8.524;2022-11-02T16:38:54;12.10;97.00